Time;durP1;ratioP1;P1;durP2;ratioP2;P2;SDS_P1;SDS_P2;PMS_P1;PMS_P2;Temp;Humidity;BMP_temperature;BMP_pressure;BME280_temperature;BME280_humidity;BME280_pressure;Samples;Min_cycle;Max_cycle;Signal;HPM_P1;HPM_P2
2022/12/11 00:01:36;;;;;;;10.68;1.48;;;;;;;3.26;100.00;99094.97;7394542;19;20017;-89
2022/12/11 00:04:02;;;;;;;3.22;1.08;;;;;;;3.23;100.00;99091.13;7395267;19;20046;-89
2022/12/11 00:06:28;;;;;;;6.55;0.88;;;;;;;3.17;100.00;99092.91;7396581;19;20010;-88
2022/12/11 00:08:54;;;;;;;4.65;1.75;;;;;;;3.14;100.00;99104.78;7394413;19;20045;-89
2022/12/11 00:11:21;;;;;;;4.00;1.42;;;;;;;3.12;100.00;99109.22;7393055;19;20014;-89
2022/12/11 00:13:48;;;;;;;1.13;0.65;;;;;;;3.06;100.00;99104.25;7397036;19;20034;-88
2022/12/11 00:16:14;;;;;;;3.47;2.42;;;;;;;3.04;100.00;99106.69;7396418;19;20471;-89
2022/12/11 00:18:41;;;;;;;8.45;2.47;;;;;;;3.01;100.00;99102.06;7395807;19;20014;-89
2022/12/11 00:21:11;;;;;;;5.38;1.65;;;;;;;2.96;100.00;99099.88;7392652;19;20078;-89
2022/12/11 00:23:38;;;;;;;5.18;1.10;;;;;;;2.89;100.00;99104.84;7395926;19;20018;-89
2022/12/11 00:26:11;;;;;;;3.08;2.00;;;;;;;2.82;100.00;99105.84;7395649;19;20017;-89
2022/12/11 00:28:37;;;;;;;5.10;2.20;;;;;;;2.80;100.00;99102.75;7394857;19;20021;-88
2022/12/11 00:31:04;;;;;;;2.20;2.05;;;;;;;2.74;100.00;99103.75;7394146;19;20350;-89
2022/12/11 00:33:31;;;;;;;3.00;1.02;;;;;;;2.74;100.00;99093.53;7400772;19;20099;-88
2022/12/11 00:35:57;;;;;;;2.00;1.75;;;;;;;2.75;100.00;99100.56;7402244;19;20460;-88
2022/12/11 00:38:23;;;;;;;3.20;1.40;;;;;;;2.79;100.00;99090.25;7401179;19;20482;-89
2022/12/11 00:40:49;;;;;;;6.93;2.88;;;;;;;2.78;100.00;99088.69;7402373;19;20018;-88
2022/12/11 00:43:16;;;;;;;3.90;1.25;;;;;;;2.85;100.00;99088.47;7401608;19;20018;-88
2022/12/11 00:45:45;;;;;;;13.50;2.22;;;;;;;2.86;100.00;99094.72;7401309;19;20069;-88
2022/12/11 00:48:12;;;;;;;4.18;2.00;;;;;;;2.85;100.00;99090.44;7400425;19;20015;-87
2022/12/11 00:50:39;;;;;;;5.50;0.95;;;;;;;2.81;100.00;99098.81;7401350;19;20018;-87
2022/12/11 00:53:05;;;;;;;4.47;2.38;;;;;;;2.97;100.00;99093.16;7399670;19;20025;-87
2022/12/11 00:55:36;;;;;;;0.95;0.95;;;;;;;2.99;100.00;99092.72;7392501;19;20021;-88
2022/12/11 00:58:03;;;;;;;2.45;1.10;;;;;;;3.11;100.00;99099.41;7392122;19;20017;-89
2022/12/11 01:00:29;;;;;;;4.18;1.77;;;;;;;3.14;100.00;99099.28;7387209;19;20483;-89
2022/12/11 01:02:56;;;;;;;0.70;0.70;;;;;;;3.38;100.00;99096.94;7390463;19;20106;-88
2022/12/11 01:05:22;;;;;;;3.70;1.40;;;;;;;3.32;100.00;99088.47;7394694;19;20019;-88
2022/12/11 01:07:48;;;;;;;5.43;2.10;;;;;;;3.00;100.00;99100.53;7396662;19;20509;-88
2022/12/11 01:10:23;;;;;;;1.42;0.98;;;;;;;2.77;100.00;99100.88;7395742;19;20036;-89
2022/12/11 01:12:51;;;;;;;4.00;1.85;;;;;;;2.68;100.00;99100.81;7400109;19;20574;-89
2022/12/11 01:15:23;;;;;;;2.83;1.40;;;;;;;2.58;100.00;99103.88;7400199;19;20106;-89
2022/12/11 01:17:49;;;;;;;5.97;2.50;;;;;;;2.70;100.00;99103.88;7403217;19;20013;-89
2022/12/11 01:20:16;;;;;;;2.67;1.13;;;;;;;3.19;100.00;99090.47;7400238;19;20051;-88
2022/12/11 01:22:42;;;;;;;5.10;1.88;;;;;;;3.32;100.00;99087.69;7401215;19;20022;-89
2022/12/11 01:25:09;;;;;;;1.27;1.00;;;;;;;3.35;100.00;99092.31;7399777;19;20014;-88
2022/12/11 01:27:36;;;;;;;4.50;1.52;;;;;;;3.37;100.00;99085.16;7404322;19;20015;-88
2022/12/11 01:30:04;;;;;;;8.25;1.60;;;;;;;3.29;100.00;99083.09;7397811;19;20029;-89
2022/12/11 01:32:31;;;;;;;5.05;2.88;;;;;;;3.22;100.00;99080.56;7398098;19;20025;-88
2022/12/11 01:34:57;;;;;;;2.50;2.30;;;;;;;3.22;100.00;99088.81;7399582;19;20475;-89
2022/12/11 01:37:23;;;;;;;4.32;1.15;;;;;;;3.18;100.00;99080.69;7402405;19;20002;-89
2022/12/11 01:39:50;;;;;;;2.78;1.55;;;;;;;3.20;100.00;99080.25;7398771;19;20041;-89
2022/12/11 01:42:18;;;;;;;3.72;2.10;;;;;;;3.17;100.00;99081.13;7400868;19;20018;-90
2022/12/11 01:44:44;;;;;;;5.15;1.60;;;;;;;3.18;100.00;99090.94;7399376;19;20020;-89
2022/12/11 01:47:10;;;;;;;3.22;2.28;;;;;;;3.75;100.00;99087.72;7404001;19;20348;-89
2022/12/11 01:49:39;;;;;;;4.22;1.40;;;;;;;3.24;100.00;99087.16;7398578;19;20022;-89
2022/12/11 01:52:11;;;;;;;2.67;1.58;;;;;;;3.62;100.00;99087.03;7396720;19;20023;-89
2022/12/11 01:54:37;;;;;;;7.97;2.70;;;;;;;3.56;100.00;99088.81;7398859;19;20022;-89
2022/12/11 01:57:07;;;;;;;1.75;1.67;;;;;;;3.60;100.00;99094.97;7397645;19;20018;-89
2022/12/11 01:59:36;;;;;;;1.05;1.00;;;;;;;3.55;100.00;99093.53;7397291;19;20095;-89
2022/12/11 02:02:14;;;;;;;3.10;0.82;;;;;;;3.52;100.00;99096.44;7398669;19;20405;-89
2022/12/11 02:04:42;;;;;;;7.65;2.47;;;;;;;3.50;100.00;99096.09;7399562;19;20027;-89
2022/12/11 02:07:09;;;;;;;1.77;1.63;;;;;;;3.49;100.00;99102.81;7403386;19;20018;-89
2022/12/11 02:09:38;;;;;;;2.13;1.48;;;;;;;4.94;100.00;99092.59;7397122;19;20019;-89
2022/12/11 02:12:23;;;;;;;3.80;1.45;;;;;;;2.99;100.00;99093.50;7397904;19;20078;-89
2022/12/11 02:14:52;;;;;;;1.77;1.55;;;;;;;2.99;100.00;99096.25;7398246;19;20019;-86
2022/12/11 02:17:21;;;;;;;0.90;0.85;;;;;;;2.73;100.00;99088.47;7402938;19;20015;-89
2022/12/11 02:20:11;;;;;;;3.30;1.63;;;;;;;2.88;100.00;99087.56;7397335;19;20015;-88
2022/12/11 02:23:15;;;;;;;9.63;1.38;;;;;;;2.91;100.00;99096.91;7396905;19;20479;-88
2022/12/11 02:26:20;;;;;;;2.25;1.73;;;;;;;2.91;100.00;99092.19;7401221;19;20014;-88
2022/12/11 02:28:59;;;;;;;5.28;1.73;;;;;;;3.27;100.00;99091.78;7386299;19;20485;-86
2022/12/11 02:31:33;;;;;;;3.20;1.60;;;;;;;3.25;100.00;99087.94;7388638;19;20023;-87
2022/12/11 02:34:17;;;;;;;2.05;1.52;;;;;;;3.30;100.00;99096.38;7395452;19;20025;-87
2022/12/11 02:36:48;;;;;;;7.68;2.28;;;;;;;3.22;100.00;99089.59;7401405;19;20034;-87
2022/12/11 02:39:16;;;;;;;6.50;1.55;;;;;;;3.41;100.00;99090.53;7396255;19;20086;-86
2022/12/11 02:41:47;;;;;;;2.45;2.03;;;;;;;3.34;100.00;99086.03;7395642;19;20017;-87
2022/12/11 02:44:17;;;;;;;4.00;1.98;;;;;;;3.29;100.00;99086.59;7397557;19;20508;-87
2022/12/11 02:46:44;;;;;;;0.40;0.40;;;;;;;3.40;100.00;99086.25;7399615;19;20011;-87
2022/12/11 02:49:12;;;;;;;2.92;1.48;;;;;;;3.51;100.00;99081.16;7396261;19;20044;-86
2022/12/11 02:51:41;;;;;;;1.75;1.20;;;;;;;3.39;100.00;99077.22;7393816;19;20014;-86
2022/12/11 02:54:15;;;;;;;4.53;1.45;;;;;;;3.68;100.00;99071.50;7393286;19;20712;-86
2022/12/11 02:56:53;;;;;;;2.45;1.55;;;;;;;3.43;100.00;99077.09;7398796;19;20011;-86
2022/12/11 02:59:35;;;;;;;1.60;1.35;;;;;;;3.51;100.00;99075.63;7394945;19;20360;-87
2022/12/11 03:02:03;;;;;;;15.63;2.22;;;;;;;3.51;100.00;99075.63;7397399;19;20097;-85
2022/12/11 03:04:29;;;;;;;3.42;1.05;;;;;;;3.48;100.00;99076.53;7395865;19;20023;-87
2022/12/11 03:07:01;;;;;;;4.25;1.13;;;;;;;3.46;100.00;99073.44;7399719;19;20032;-87
2022/12/11 03:09:28;;;;;;;2.58;1.15;;;;;;;3.47;100.00;99077.72;7392906;19;20035;-87
2022/12/11 03:11:54;;;;;;;5.57;1.58;;;;;;;3.47;100.00;99059.22;7393372;19;20021;-87
2022/12/11 03:14:20;;;;;;;16.45;2.60;;;;;;;3.60;100.00;99064.69;7397094;19;20374;-86
2022/12/11 03:17:04;;;;;;;6.80;1.38;;;;;;;3.91;100.00;99071.03;7396825;19;20453;-87
2022/12/11 03:19:41;;;;;;;13.77;1.70;;;;;;;3.84;100.00;99069.31;7393603;19;20014;-86
2022/12/11 03:22:16;;;;;;;2.92;0.68;;;;;;;3.60;100.00;99070.19;7394868;19;20007;-87
2022/12/11 03:24:47;;;;;;;6.90;1.70;;;;;;;3.75;100.00;99066.47;7397273;19;20017;-86
2022/12/11 03:27:32;;;;;;;1.27;1.00;;;;;;;3.45;100.00;99067.16;7396365;19;20018;-86
2022/12/11 03:30:04;;;;;;;1.45;1.38;;;;;;;3.63;100.00;99058.28;7394733;19;20025;-86
2022/12/11 03:32:37;;;;;;;7.90;1.17;;;;;;;3.70;100.00;99058.03;7392810;19;20366;-86
2022/12/11 03:35:17;;;;;;;1.17;1.08;;;;;;;3.51;100.00;99056.38;7395532;19;20014;-87
2022/12/11 03:37:46;;;;;;;1.45;1.23;;;;;;;3.90;100.00;99044.69;7398312;19;20014;-86
2022/12/11 03:40:16;;;;;;;5.30;2.25;;;;;;;3.73;100.00;99040.59;7392013;19;20028;-87
2022/12/11 03:42:45;;;;;;;2.90;2.13;;;;;;;4.25;100.00;99046.09;7393765;19;20026;-87
2022/12/11 03:45:13;;;;;;;4.70;1.42;;;;;;;4.21;100.00;99048.22;7395447;19;20010;-88
2022/12/11 03:47:41;;;;;;;4.32;1.38;;;;;;;4.43;100.00;99048.94;7399606;19;20029;-90
2022/12/11 03:50:09;;;;;;;3.50;1.38;;;;;;;3.84;100.00;99052.00;7395173;19;20010;-89
2022/12/11 03:52:38;;;;;;;2.35;1.23;;;;;;;3.94;100.00;99039.84;7393477;19;20047;-89
2022/12/11 03:55:05;;;;;;;6.53;2.40;;;;;;;3.94;100.00;99034.31;7396709;19;20015;-89
2022/12/11 03:57:36;;;;;;;5.20;1.70;;;;;;;4.71;100.00;99038.00;7399423;19;20010;-89
2022/12/11 04:00:14;;;;;;;13.48;2.92;;;;;;;4.18;100.00;99045.63;7393758;19;20003;-89
2022/12/11 04:02:40;;;;;;;2.50;2.10;;;;;;;4.49;100.00;99041.63;7396360;19;20052;-89
2022/12/11 04:05:08;;;;;;;12.50;2.90;;;;;;;4.28;100.00;99042.47;7394784;19;20024;-90
2022/12/11 04:07:34;;;;;;;6.13;1.77;;;;;;;4.37;100.00;99045.25;7398762;19;20494;-89
2022/12/11 04:10:01;;;;;;;7.35;3.00;;;;;;;4.53;100.00;99038.72;7392835;19;20017;-89
2022/12/11 04:12:27;;;;;;;4.95;1.80;;;;;;;4.59;100.00;99043.16;7393104;19;20006;-89
2022/12/11 04:15:02;;;;;;;5.95;2.58;;;;;;;4.63;100.00;99052.06;7394574;19;20025;-89
2022/12/11 04:26:09;;;;;;;6.57;2.88;;;;;;;3.91;100.00;99046.22;7396152;19;20015;-89
2022/12/11 04:28:36;;;;;;;1.23;1.08;;;;;;;3.96;100.00;99048.41;7393680;19;20002;-89
2022/12/11 04:31:03;;;;;;;3.50;2.20;;;;;;;3.81;100.00;99047.41;7393929;19;20077;-88
2022/12/11 04:33:29;;;;;;;2.25;1.67;;;;;;;3.76;100.00;99045.22;7394856;19;20472;-89
2022/12/11 04:35:59;;;;;;;5.18;1.58;;;;;;;3.83;100.00;99044.97;7398425;19;20017;-89
2022/12/11 04:38:26;;;;;;;12.57;1.80;;;;;;;3.93;100.00;99049.31;7393803;19;20018;-88
2022/12/11 04:41:04;;;;;;;3.92;1.77;;;;;;;3.32;100.00;99051.91;7393142;19;20010;-89
2022/12/11 04:43:31;;;;;;;6.72;2.50;;;;;;;3.34;100.00;99052.22;7393843;19;20023;-89
2022/12/11 04:46:09;;;;;;;5.78;2.55;;;;;;;3.23;100.00;99052.59;7394800;19;20007;-89
2022/12/11 04:48:36;;;;;;;7.75;2.20;;;;;;;3.40;100.00;99050.47;7394432;19;20015;-89
2022/12/11 04:51:03;;;;;;;4.40;1.50;;;;;;;3.29;100.00;99055.56;7394265;19;20010;-89
2022/12/11 04:53:29;;;;;;;1.15;0.98;;;;;;;3.39;100.00;99049.69;7393292;19;20019;-88
2022/12/11 04:55:55;;;;;;;21.60;2.33;;;;;;;3.32;100.00;99054.66;7394190;19;20003;-89
2022/12/11 04:58:23;;;;;;;1.45;1.35;;;;;;;3.35;100.00;99049.06;7392267;19;20031;-89
2022/12/11 05:00:49;;;;;;;4.93;1.98;;;;;;;2.67;100.00;99049.78;7393314;19;20018;-89
2022/12/11 05:03:16;;;;;;;2.03;1.52;;;;;;;2.19;100.00;99041.88;7393494;19;20011;-89
2022/12/11 05:05:50;;;;;;;11.88;3.97;;;;;;;1.58;100.00;99046.81;7396156;19;20018;-90
2022/12/11 05:08:17;;;;;;;2.92;1.80;;;;;;;2.29;100.00;99046.28;7394298;19;20519;-89
2022/12/11 05:10:43;;;;;;;7.60;2.10;;;;;;;1.68;100.00;99045.75;7392112;19;20033;-89
2022/12/11 05:13:09;;;;;;;2.25;1.60;;;;;;;3.79;100.00;99038.81;7392782;19;20047;-89
2022/12/11 05:15:39;;;;;;;2.17;1.33;;;;;;;3.75;100.00;99038.16;7394364;19;20021;-89
2022/12/11 05:18:05;;;;;;;1.45;1.20;;;;;;;4.02;100.00;99041.09;7394770;19;20010;-89
2022/12/11 05:20:31;;;;;;;2.42;1.05;;;;;;;3.79;100.00;99034.06;7399050;19;20014;-89
2022/12/11 05:22:57;;;;;;;1.80;1.70;;;;;;;4.02;100.00;99030.09;7400495;19;20015;-89
2022/12/11 05:25:23;;;;;;;2.83;1.77;;;;;;;3.94;100.00;99028.81;7399835;19;20018;-90
2022/12/11 05:27:50;;;;;;;9.98;1.52;;;;;;;4.25;100.00;99032.31;7405144;19;20028;-89
2022/12/11 05:30:16;;;;;;;1.95;1.55;;;;;;;4.37;100.00;99034.22;7397476;19;20504;-89
2022/12/11 05:32:42;;;;;;;5.13;2.30;;;;;;;4.34;100.00;99024.09;7398873;19;20011;-89
2022/12/11 05:35:08;;;;;;;5.60;2.65;;;;;;;4.27;100.00;99029.88;7400359;19;20018;-89
2022/12/11 05:37:35;;;;;;;6.55;1.48;;;;;;;5.17;100.00;99034.09;7403542;19;20097;-88
2022/12/11 05:40:01;;;;;;;0.82;0.82;;;;;;;4.83;100.00;99026.84;7396846;19;20066;-89
2022/12/11 05:42:27;;;;;;;2.50;1.20;;;;;;;4.55;100.00;99023.25;7400911;19;20344;-89
2022/12/11 05:44:53;;;;;;;2.15;1.52;;;;;;;4.33;100.00;99035.59;7401296;19;20077;-89
2022/12/11 05:47:20;;;;;;;6.05;1.85;;;;;;;4.33;100.00;99033.59;7402668;19;20014;-89
2022/12/11 05:49:46;;;;;;;4.13;3.28;;;;;;;3.98;100.00;99026.69;7398884;19;20015;-89
2022/12/11 05:52:12;;;;;;;8.23;3.17;;;;;;;3.91;100.00;99024.19;7398972;19;20783;-89
2022/12/11 05:54:39;;;;;;;4.68;2.60;;;;;;;3.96;100.00;99026.38;7399194;19;20011;-89
2022/12/11 05:57:05;;;;;;;3.67;3.15;;;;;;;4.24;100.00;99025.28;7400974;19;20006;-89
2022/12/11 05:59:31;;;;;;;3.88;2.22;;;;;;;3.96;100.00;99031.88;7398676;19;20685;-89
2022/12/11 06:01:57;;;;;;;22.95;3.28;;;;;;;4.01;100.00;99036.78;7399178;19;20021;-89
2022/12/11 06:04:23;;;;;;;28.55;3.05;;;;;;;3.96;100.00;99034.66;7398387;19;20025;-89
2022/12/11 06:06:52;;;;;;;5.32;3.38;;;;;;;4.01;100.00;99034.03;7403367;19;20010;-89
2022/12/11 06:09:18;;;;;;;6.72;3.13;;;;;;;4.28;100.00;99030.66;7396664;19;20022;-89
2022/12/11 06:11:44;;;;;;;7.45;1.95;;;;;;;4.36;100.00;99035.44;7399390;19;20033;-88
2022/12/11 06:14:11;;;;;;;16.98;2.95;;;;;;;3.83;100.00;99028.44;7398982;19;20011;-89
2022/12/11 06:16:37;;;;;;;3.55;1.85;;;;;;;3.64;100.00;99032.28;7401521;19;20094;-88
2022/12/11 06:19:03;;;;;;;8.20;3.40;;;;;;;3.44;100.00;99031.84;7391164;19;20025;-89
2022/12/11 06:21:31;;;;;;;10.95;2.67;;;;;;;2.57;100.00;99034.41;7391197;19;20014;-90
2022/12/11 06:24:00;;;;;;;2.00;1.25;;;;;;;3.70;100.00;99041.53;7395450;19;20683;-89
2022/12/11 06:26:27;;;;;;;5.40;2.42;;;;;;;3.65;100.00;99039.34;7399843;19;20022;-89
2022/12/11 06:28:53;;;;;;;9.75;2.42;;;;;;;2.28;100.00;99041.97;7396030;19;20010;-89
2022/12/11 06:31:19;;;;;;;6.35;1.42;;;;;;;3.79;100.00;99033.28;7396156;19;20017;-89
2022/12/11 06:33:46;;;;;;;6.90;0.98;;;;;;;3.94;100.00;99037.09;7397462;19;20077;-89
2022/12/11 06:36:19;;;;;;;2.95;2.20;;;;;;;4.05;100.00;99040.19;7398398;19;20010;-89
2022/12/11 06:38:46;;;;;;;9.63;1.80;;;;;;;4.05;100.00;99040.19;7396781;19;20066;-89
2022/12/11 06:41:13;;;;;;;8.73;4.07;;;;;;;4.30;100.00;99031.75;7397585;19;20085;-89
2022/12/11 06:43:41;;;;;;;7.53;2.20;;;;;;;4.17;100.00;99035.81;7398299;19;20015;-89
2022/12/11 06:46:12;;;;;;;7.65;2.33;;;;;;;4.42;100.00;99041.13;7399716;19;20701;-89
2022/12/11 06:48:41;;;;;;;10.90;2.97;;;;;;;4.45;100.00;99035.47;7396899;19;20429;-89
2022/12/11 06:51:11;;;;;;;22.13;1.58;;;;;;;4.43;100.00;99037.94;7397227;19;20011;-89
2022/12/11 06:53:37;;;;;;;8.75;3.58;;;;;;;4.22;100.00;99035.22;7398907;19;20026;-89
2022/12/11 06:56:05;;;;;;;21.92;2.25;;;;;;;4.14;100.00;99037.47;7398666;19;20341;-90
2022/12/11 06:58:33;;;;;;;7.28;2.30;;;;;;;4.17;100.00;99041.31;7398542;19;20014;-91
2022/12/11 07:01:02;;;;;;;2.45;2.25;;;;;;;4.16;100.00;99040.53;7398694;19;20357;-90
2022/12/11 07:03:29;;;;;;;7.63;1.70;;;;;;;4.19;100.00;99042.41;7395195;19;20035;-85
2022/12/11 07:06:01;;;;;;;1.95;1.63;;;;;;;4.16;100.00;99040.53;7350359;19;20080;-88
2022/12/11 07:08:28;;;;;;;2.33;1.55;;;;;;;4.11;100.00;99041.16;7397242;19;20469;-87
2022/12/11 07:10:54;;;;;;;21.05;4.03;;;;;;;4.13;100.00;99041.47;7395062;19;20011;-88
2022/12/11 07:13:20;;;;;;;6.30;1.83;;;;;;;4.09;100.00;99048.34;7393863;19;20088;-88
2022/12/11 07:15:46;;;;;;;5.50;3.05;;;;;;;4.08;100.00;99055.81;7396228;19;20019;-87
2022/12/11 07:18:13;;;;;;;8.60;1.67;;;;;;;4.06;100.00;99046.47;7396104;19;20109;-87
2022/12/11 07:20:39;;;;;;;1.38;1.27;;;;;;;3.93;100.00;99043.81;7396660;19;20006;-87
2022/12/11 07:23:05;;;;;;;8.63;1.48;;;;;;;5.21;100.00;99041.00;7394660;19;20705;-87
2022/12/11 07:25:31;;;;;;;13.45;2.30;;;;;;;4.80;100.00;99043.53;7393230;19;20025;-87
2022/12/11 07:27:57;;;;;;;5.93;2.03;;;;;;;4.75;100.00;99053.19;7396677;19;20018;-87
2022/12/11 07:30:23;;;;;;;9.50;2.15;;;;;;;4.69;100.00;99049.50;7392099;19;20019;-87
2022/12/11 07:32:49;;;;;;;3.95;1.40;;;;;;;4.63;100.00;99053.31;7390267;19;20010;-87
2022/12/11 07:35:16;;;;;;;15.25;3.42;;;;;;;4.55;100.00;99050.03;7396095;19;20302;-87
2022/12/11 07:37:43;;;;;;;24.67;2.42;;;;;;;4.47;100.00;99060.59;7394821;19;20002;-86
2022/12/11 07:40:10;;;;;;;4.80;2.47;;;;;;;4.61;100.00;99062.03;7392058;19;20492;-87
2022/12/11 07:42:36;;;;;;;12.52;4.85;;;;;;;4.59;100.00;99054.19;7395363;19;20110;-86
2022/12/11 07:45:02;;;;;;;11.80;2.03;;;;;;;4.54;100.00;99060.31;7396444;19;20018;-87
2022/12/11 07:47:29;;;;;;;3.30;1.52;;;;;;;4.52;100.00;99060.03;7394947;19;20598;-87
2022/12/11 07:49:55;;;;;;;1.88;1.75;;;;;;;4.50;100.00;99059.69;7394644;19;20522;-87
2022/12/11 07:52:21;;;;;;;11.15;3.17;;;;;;;4.73;100.00;99066.66;7391052;19;20455;-86
2022/12/11 07:54:47;;;;;;;10.27;2.55;;;;;;;4.71;100.00;99068.34;7394740;19;20019;-87
2022/12/11 07:57:13;;;;;;;21.33;1.98;;;;;;;4.73;100.00;99060.38;7394936;19;20094;-87
2022/12/11 07:59:40;;;;;;;8.65;3.15;;;;;;;4.68;100.00;99061.00;7394802;19;20033;-87
2022/12/11 08:02:09;;;;;;;5.70;2.20;;;;;;;4.00;100.00;99060.06;7397518;19;20010;-87
2022/12/11 08:04:35;;;;;;;5.13;3.60;;;;;;;4.06;100.00;99058.25;7392944;19;20035;-87
2022/12/11 08:07:01;;;;;;;7.57;2.65;;;;;;;3.99;100.00;99055.75;7395983;19;20023;-87
2022/12/11 08:09:27;;;;;;;11.70;2.25;;;;;;;3.84;100.00;99054.75;7389388;19;20022;-87
2022/12/11 08:11:54;;;;;;;9.30;3.08;;;;;;;3.76;100.00;99059.78;7392057;19;20038;-87
2022/12/11 08:14:20;;;;;;;14.90;2.88;;;;;;;3.75;100.00;99055.47;7391500;19;20010;-86
2022/12/11 08:16:46;;;;;;;2.38;1.90;;;;;;;3.72;100.00;99052.84;7395035;19;20408;-87
2022/12/11 08:19:13;;;;;;;3.30;2.15;;;;;;;3.80;100.00;99051.38;7391810;19;20105;-87
2022/12/11 08:21:39;;;;;;;2.00;1.42;;;;;;;3.42;100.00;99059.03;7391996;19;20018;-87
2022/12/11 08:24:07;;;;;;;4.22;2.35;;;;;;;3.75;100.00;99060.97;7392442;19;20018;-87
2022/12/11 08:26:33;;;;;;;22.70;2.40;;;;;;;4.18;100.00;99064.91;7391522;19;20027;-86
2022/12/11 08:29:01;;;;;;;1.75;1.23;;;;;;;4.41;100.00;99064.41;7390933;19;20611;-87
2022/12/11 08:31:28;;;;;;;3.17;1.90;;;;;;;4.87;100.00;99062.56;7390719;19;20027;-87
2022/12/11 08:33:56;;;;;;;3.30;2.05;;;;;;;2.42;100.00;99077.28;7390315;19;20025;-87
2022/12/11 08:36:22;;;;;;;7.85;1.50;;;;;;;2.13;100.00;99077.34;7392502;19;20015;-87
2022/12/11 08:38:50;;;;;;;10.18;3.17;;;;;;;4.03;100.00;99069.41;7388450;19;20017;-86
2022/12/11 08:41:21;;;;;;;5.30;2.20;;;;;;;3.88;100.00;99071.91;7391207;19;20018;-86
2022/12/11 08:43:48;;;;;;;10.68;1.67;;;;;;;4.63;100.00;99075.38;7391117;19;20479;-86
2022/12/11 08:46:15;;;;;;;5.88;1.42;;;;;;;5.13;100.00;99072.88;7395344;19;20019;-87
2022/12/11 08:48:42;;;;;;;5.70;2.45;;;;;;;3.85;100.00;99075.59;7387826;19;20037;-87
2022/12/11 08:51:12;;;;;;;4.75;2.40;;;;;;;4.04;100.00;99071.72;7384992;19;20011;-88
2022/12/11 08:53:38;;;;;;;4.10;3.42;;;;;;;4.45;100.00;99076.84;7389598;19;20019;-88
2022/12/11 08:56:10;;;;;;;1.40;1.30;;;;;;;7.36;100.00;99077.97;7392504;19;20057;-87
2022/12/11 08:58:37;;;;;;;2.47;1.65;;;;;;;7.09;100.00;99077.38;7390000;19;20033;-86
2022/12/11 09:01:08;;;;;;;14.52;3.05;;;;;;;4.68;100.00;99080.28;7393559;19;20041;-89
2022/12/11 09:03:35;;;;;;;;;;;;;;;4.22;100.00;99077.31;7402411;19;20011;-90
2022/12/11 09:06:10;;;;;;;10.18;2.70;;;;;;;4.89;100.00;99079.44;7403773;19;19925;-89
2022/12/11 09:08:36;;;;;;;2.50;1.77;;;;;;;4.58;100.00;99080.25;7402480;19;20457;-90
2022/12/11 09:11:08;;;;;;;12.80;4.75;;;;;;;5.14;100.00;99084.69;7401214;19;20358;-89
2022/12/11 09:13:35;;;;;;;2.78;1.17;;;;;;;3.51;100.00;99089.41;7400673;19;20033;-88
2022/12/11 09:16:08;;;;;;;3.65;2.30;;;;;;;4.12;100.00;99077.72;7397483;19;20232;-87
2022/12/11 09:18:35;;;;;;;9.82;2.22;;;;;;;4.81;100.00;99078.19;7395618;19;20030;-86
2022/12/11 09:21:12;;;;;;;3.88;1.80;;;;;;;4.16;100.00;99075.63;7399166;19;20014;-87
2022/12/11 09:23:39;;;;;;;20.08;2.40;;;;;;;3.85;100.00;99079.09;7397807;19;20040;-87
2022/12/11 09:26:09;;;;;;;3.22;1.67;;;;;;;3.80;100.00;99073.41;7400582;19;20018;-86
2022/12/11 09:28:37;;;;;;;16.45;2.50;;;;;;;3.68;100.00;99065.97;7397490;19;20472;-86
2022/12/11 09:31:11;;;;;;;4.13;2.63;;;;;;;3.64;100.00;99076.31;7398963;19;20018;-87
2022/12/11 09:33:38;;;;;;;10.43;3.83;;;;;;;3.61;100.00;99080.00;7400449;19;20447;-86
2022/12/11 09:36:05;;;;;;;3.35;2.10;;;;;;;3.57;100.00;99087.63;7401051;19;20018;-85
2022/12/11 09:38:32;;;;;;;9.93;2.55;;;;;;;3.50;100.00;99083.13;7396248;19;20015;-87
2022/12/11 09:40:59;;;;;;;12.40;4.47;;;;;;;5.40;100.00;99085.94;7400420;19;20074;-87
2022/12/11 09:43:50;;;;;;;9.40;1.55;;;;;;;5.76;100.00;99074.88;7401149;19;20056;-87
2022/12/11 09:46:16;;;;;;;14.95;3.58;;;;;;;5.15;100.00;99080.72;7401513;19;20040;-88
2022/12/11 09:48:48;;;;;;;4.28;2.33;;;;;;;4.94;100.00;99081.56;7399340;19;20053;-86
2022/12/11 09:51:39;;;;;;;21.52;4.18;;;;;;;6.23;100.00;99081.91;7395426;19;20534;-84
2022/12/11 09:54:05;;;;;;;5.88;3.75;;;;;;;7.55;100.00;99087.69;7394704;19;20041;-86
2022/12/11 09:56:44;;;;;;;7.25;2.58;;;;;;;5.20;100.00;99082.84;7400033;19;20082;-84
2022/12/11 09:59:47;;;;;;;5.38;1.73;;;;;;;4.21;100.00;99086.81;7395546;19;20026;-84
2022/12/11 10:02:16;;;;;;;6.32;2.45;;;;;;;3.78;100.00;99086.84;7395007;19;20022;-88
2022/12/11 10:04:48;;;;;;;16.35;3.92;;;;;;;3.55;100.00;99095.56;7397648;19;20056;-85
2022/12/11 10:07:40;;;;;;;11.95;2.47;;;;;;;3.21;100.00;99090.81;7401216;19;20014;-86
2022/12/11 10:10:13;;;;;;;9.40;1.38;;;;;;;2.96;100.00;99094.38;7392784;19;20019;-89
2022/12/11 10:12:56;;;;;;;3.65;2.25;;;;;;;2.79;100.00;99094.97;7387474;19;20043;-89
2022/12/11 10:15:53;;;;;;;6.00;2.97;;;;;;;2.75;100.00;99095.06;7395726;19;20110;-88
2022/12/11 10:18:23;;;;;;;1.48;1.30;;;;;;;2.89;100.00;99088.34;7388926;19;20039;-88
2022/12/11 10:20:51;;;;;;;6.43;2.93;;;;;;;2.83;100.00;99096.38;7390973;19;20018;-88
2022/12/11 10:23:21;;;;;;;5.97;3.13;;;;;;;2.79;100.00;99095.75;7390413;19;20064;-88
2022/12/11 10:26:03;;;;;;;16.05;2.85;;;;;;;2.97;100.00;99093.16;7390339;19;20098;-88
2022/12/11 10:28:29;;;;;;;3.03;1.65;;;;;;;2.88;100.00;99098.56;7390026;19;20108;-89
2022/12/11 10:31:19;;;;;;;3.75;2.60;;;;;;;3.11;100.00;99082.91;7390279;19;20026;-90
2022/12/11 10:34:00;;;;;;;6.93;2.15;;;;;;;3.10;100.00;99086.88;7391222;19;20028;-89
2022/12/11 10:36:34;;;;;;;12.38;3.30;;;;;;;3.01;100.00;99093.81;7391758;19;20026;-90
2022/12/11 10:39:00;;;;;;;12.10;1.98;;;;;;;2.98;100.00;99094.72;7388731;19;20007;-89
2022/12/11 10:41:38;;;;;;;9.18;2.10;;;;;;;2.92;100.00;99092.97;7391043;19;20022;-90
2022/12/11 10:44:17;;;;;;;4.93;2.10;;;;;;;2.89;100.00;99083.63;7393658;19;20010;-88
2022/12/11 10:46:46;;;;;;;8.77;1.73;;;;;;;2.89;100.00;99083.63;7392504;19;20041;-88
2022/12/11 10:49:27;;;;;;;4.00;2.15;;;;;;;2.87;100.00;99074.25;7387286;19;20020;-88
2022/12/11 10:51:55;;;;;;;2.83;1.90;;;;;;;2.84;100.00;99086.91;7388297;19;20491;-89
2022/12/11 10:54:38;;;;;;;2.70;1.63;;;;;;;2.82;100.00;99078.34;7388888;19;20022;-88
2022/12/11 10:57:08;;;;;;;5.95;2.53;;;;;;;2.84;100.00;99081.41;7391623;19;20078;-88
2022/12/11 10:59:49;;;;;;;7.35;2.08;;;;;;;2.83;100.00;99077.16;7388792;19;20022;-89
2022/12/11 11:02:29;;;;;;;3.15;1.70;;;;;;;3.05;100.00;99075.22;7389783;19;20125;-90
2022/12/11 11:04:58;;;;;;;3.50;2.47;;;;;;;2.96;100.00;99080.66;7389558;19;20031;-89
2022/12/11 11:07:27;;;;;;;1.42;1.33;;;;;;;2.90;100.00;99076.88;7392169;19;20051;-90
2022/12/11 11:10:12;;;;;;;12.98;2.90;;;;;;;2.90;100.00;99070.66;7386342;19;20044;-88
2022/12/11 11:12:41;;;;;;;0.95;0.80;;;;;;;3.51;100.00;99067.38;7387675;19;20041;-87
2022/12/11 11:15:23;;;;;;;3.30;0.82;;;;;;;3.01;100.00;99060.81;7390801;19;20022;-85
2022/12/11 11:17:56;;;;;;;5.97;1.15;;;;;;;3.08;100.00;99062.56;7394219;19;20018;-90
2022/12/11 11:20:28;;;;;;;13.50;1.92;;;;;;;3.00;100.00;99056.53;7386972;19;20482;-87
2022/12/11 11:23:01;;;;;;;5.28;2.00;;;;;;;2.90;100.00;99054.16;7388875;19;20026;-89
2022/12/11 11:25:30;;;;;;;2.38;1.30;;;;;;;2.91;100.00;99063.91;7386914;19;20014;-89
2022/12/11 11:28:16;;;;;;;6.65;2.30;;;;;;;2.89;100.00;99061.63;7394378;19;20014;-87
2022/12/11 11:31:05;;;;;;;7.93;1.60;;;;;;;2.84;100.00;99064.91;7387533;19;20022;-87
2022/12/11 11:33:34;;;;;;;4.93;1.50;;;;;;;2.82;100.00;99064.59;7387287;19;20019;-88
2022/12/11 11:36:05;;;;;;;1.02;0.90;;;;;;;2.78;100.00;99061.19;7389161;19;20047;-90
2022/12/11 11:38:34;;;;;;;5.25;1.30;;;;;;;4.55;100.00;99061.84;7388567;19;20035;-87
2022/12/11 11:41:08;;;;;;;3.38;1.50;;;;;;;3.70;100.00;99058.03;7389228;19;20510;-87
2022/12/11 11:43:43;;;;;;;2.03;1.90;;;;;;;4.68;100.00;99058.22;7389194;19;20392;-85
2022/12/11 11:46:17;;;;;;;2.35;1.38;;;;;;;3.54;100.00;99063.72;7388996;19;20058;-87
2022/12/11 11:48:48;;;;;;;2.53;2.00;;;;;;;2.97;100.00;99067.63;7388453;19;20017;-86
2022/12/11 11:51:20;;;;;;;;;;;;;;;3.19;100.00;99062.19;7391350;19;20078;-86
2022/12/11 11:53:50;;;;;;;1.23;1.17;;;;;;;4.51;100.00;99063.22;7390660;19;19919;-88